sensor_id;sensor_type;location;lat;lon;timestamp;P1;durP1;ratioP1;P2;durP2;ratioP2
80926;SDS011;70385;44.538;18.532;2023-10-09T00:00:09;3.63;;;0.65;;
80926;SDS011;70385;44.538;18.532;2023-10-09T00:02:54;4.07;;;0.60;;
80926;SDS011;70385;44.538;18.532;2023-10-09T00:05:20;3.53;;;0.80;;
80926;SDS011;70385;44.538;18.532;2023-10-09T00:07:57;2.22;;;0.70;;
80926;SDS011;70385;44.538;18.532;2023-10-09T00:10:23;6.05;;;0.80;;
80926;SDS011;70385;44.538;18.532;2023-10-09T00:13:00;1.25;;;0.75;;
80926;SDS011;70385;44.538;18.532;2023-10-09T00:15:26;1.70;;;0.80;;
80926;SDS011;70385;44.538;18.532;2023-10-09T00:17:53;1.85;;;1.08;;
80926;SDS011;70385;44.538;18.532;2023-10-09T00:20:21;4.22;;;1.00;;
80926;SDS011;70385;44.538;18.532;2023-10-09T00:22:50;4.60;;;1.30;;
80926;SDS011;70385;44.538;18.532;2023-10-09T00:25:16;1.70;;;0.95;;
80926;SDS011;70385;44.538;18.532;2023-10-09T00:27:54;3.63;;;1.33;;
80926;SDS011;70385;44.538;18.532;2023-10-09T00:30:20;2.45;;;1.00;;
80926;SDS011;70385;44.538;18.532;2023-10-09T00:32:55;2.93;;;1.03;;
80926;SDS011;70385;44.538;18.532;2023-10-09T00:35:23;2.13;;;0.80;;
80926;SDS011;70385;44.538;18.532;2023-10-09T00:38:07;4.07;;;1.27;;
80926;SDS011;70385;44.538;18.532;2023-10-09T00:40:59;3.15;;;0.93;;
80926;SDS011;70385;44.538;18.532;2023-10-09T00:43:33;3.83;;;1.00;;
80926;SDS011;70385;44.538;18.532;2023-10-09T00:46:01;2.83;;;1.55;;
80926;SDS011;70385;44.538;18.532;2023-10-09T00:48:37;6.80;;;1.60;;
80926;SDS011;70385;44.538;18.532;2023-10-09T00:51:06;3.75;;;1.65;;
80926;SDS011;70385;44.538;18.532;2023-10-09T00:53:44;1.98;;;1.42;;
80926;SDS011;70385;44.538;18.532;2023-10-09T00:56:17;4.32;;;1.65;;
80926;SDS011;70385;44.538;18.532;2023-10-09T00:58:45;2.55;;;1.63;;
80926;SDS011;70385;44.538;18.532;2023-10-09T01:01:14;5.22;;;1.67;;
80926;SDS011;70385;44.538;18.532;2023-10-09T01:03:41;5.28;;;1.90;;
80926;SDS011;70385;44.538;18.532;2023-10-09T01:06:10;2.63;;;1.67;;
80926;SDS011;70385;44.538;18.532;2023-10-09T01:08:40;2.95;;;1.70;;
80926;SDS011;70385;44.538;18.532;2023-10-09T01:11:08;3.22;;;1.80;;
80926;SDS011;70385;44.538;18.532;2023-10-09T01:14:08;3.03;;;1.75;;
80926;SDS011;70385;44.538;18.532;2023-10-09T01:16:34;4.40;;;1.52;;
80926;SDS011;70385;44.538;18.532;2023-10-09T01:19:00;5.15;;;1.60;;
80926;SDS011;70385;44.538;18.532;2023-10-09T01:21:31;3.33;;;1.27;;
80926;SDS011;70385;44.538;18.532;2023-10-09T01:23:57;3.20;;;1.30;;
80926;SDS011;70385;44.538;18.532;2023-10-09T01:26:37;3.50;;;1.40;;
80926;SDS011;70385;44.538;18.532;2023-10-09T01:29:15;3.75;;;1.70;;
80926;SDS011;70385;44.538;18.532;2023-10-09T01:31:48;2.25;;;1.20;;
80926;SDS011;70385;44.538;18.532;2023-10-09T01:34:23;2.13;;;1.10;;
80926;SDS011;70385;44.538;18.532;2023-10-09T01:37:20;2.05;;;1.23;;
80926;SDS011;70385;44.538;18.532;2023-10-09T01:39:47;1.80;;;1.30;;
80926;SDS011;70385;44.538;18.532;2023-10-09T01:42:45;3.63;;;1.30;;
80926;SDS011;70385;44.538;18.532;2023-10-09T01:45:12;5.18;;;1.95;;
80926;SDS011;70385;44.538;18.532;2023-10-09T01:47:52;4.22;;;1.80;;
80926;SDS011;70385;44.538;18.532;2023-10-09T01:50:22;2.83;;;1.35;;
80926;SDS011;70385;44.538;18.532;2023-10-09T01:52:56;2.83;;;1.45;;
80926;SDS011;70385;44.538;18.532;2023-10-09T01:55:26;2.05;;;1.23;;
80926;SDS011;70385;44.538;18.532;2023-10-09T01:57:59;2.03;;;1.08;;
80926;SDS011;70385;44.538;18.532;2023-10-09T02:00:31;3.78;;;1.35;;
80926;SDS011;70385;44.538;18.532;2023-10-09T02:03:09;2.97;;;1.30;;
80926;SDS011;70385;44.538;18.532;2023-10-09T02:05:52;4.78;;;1.50;;
80926;SDS011;70385;44.538;18.532;2023-10-09T02:08:25;2.40;;;0.98;;
80926;SDS011;70385;44.538;18.532;2023-10-09T02:10:55;3.58;;;1.42;;
80926;SDS011;70385;44.538;18.532;2023-10-09T02:13:24;4.70;;;1.33;;
80926;SDS011;70385;44.538;18.532;2023-10-09T02:15:59;4.53;;;1.50;;
80926;SDS011;70385;44.538;18.532;2023-10-09T02:18:41;2.67;;;1.45;;
80926;SDS011;70385;44.538;18.532;2023-10-09T02:21:21;2.88;;;1.27;;
80926;SDS011;70385;44.538;18.532;2023-10-09T02:23:58;2.47;;;1.30;;
80926;SDS011;70385;44.538;18.532;2023-10-09T02:26:29;9.80;;;1.58;;
80926;SDS011;70385;44.538;18.532;2023-10-09T02:29:04;2.85;;;1.80;;
80926;SDS011;70385;44.538;18.532;2023-10-09T02:31:43;2.85;;;1.40;;
80926;SDS011;70385;44.538;18.532;2023-10-09T02:34:12;4.05;;;1.60;;
80926;SDS011;70385;44.538;18.532;2023-10-09T02:36:40;4.40;;;1.70;;
80926;SDS011;70385;44.538;18.532;2023-10-09T02:39:14;3.00;;;1.45;;
80926;SDS011;70385;44.538;18.532;2023-10-09T02:41:55;2.08;;;1.75;;
80926;SDS011;70385;44.538;18.532;2023-10-09T02:44:37;3.78;;;1.65;;
80926;SDS011;70385;44.538;18.532;2023-10-09T02:47:14;5.30;;;1.50;;
80926;SDS011;70385;44.538;18.532;2023-10-09T02:49:48;3.65;;;1.67;;
80926;SDS011;70385;44.538;18.532;2023-10-09T02:52:15;2.40;;;1.33;;
80926;SDS011;70385;44.538;18.532;2023-10-09T02:54:49;3.00;;;1.40;;
80926;SDS011;70385;44.538;18.532;2023-10-09T02:57:27;4.90;;;1.80;;
80926;SDS011;70385;44.538;18.532;2023-10-09T03:00:05;3.15;;;1.65;;
80926;SDS011;70385;44.538;18.532;2023-10-09T03:02:39;2.05;;;1.30;;
80926;SDS011;70385;44.538;18.532;2023-10-09T03:05:07;3.30;;;1.45;;
80926;SDS011;70385;44.538;18.532;2023-10-09T03:07:37;2.53;;;1.50;;
80926;SDS011;70385;44.538;18.532;2023-10-09T03:10:05;3.00;;;1.50;;
80926;SDS011;70385;44.538;18.532;2023-10-09T03:12:35;2.15;;;1.40;;
80926;SDS011;70385;44.538;18.532;2023-10-09T03:15:01;3.35;;;1.60;;
80926;SDS011;70385;44.538;18.532;2023-10-09T03:17:31;4.90;;;1.90;;
80926;SDS011;70385;44.538;18.532;2023-10-09T03:20:02;2.70;;;2.00;;
80926;SDS011;70385;44.538;18.532;2023-10-09T03:22:38;3.95;;;1.92;;
80926;SDS011;70385;44.538;18.532;2023-10-09T03:25:05;5.97;;;2.38;;
80926;SDS011;70385;44.538;18.532;2023-10-09T03:27:39;5.05;;;2.72;;
80926;SDS011;70385;44.538;18.532;2023-10-09T03:32:43;13.05;;;4.78;;
80926;SDS011;70385;44.538;18.532;2023-10-09T03:35:12;13.10;;;3.67;;
80926;SDS011;70385;44.538;18.532;2023-10-09T03:37:43;11.73;;;3.53;;
80926;SDS011;70385;44.538;18.532;2023-10-09T03:40:08;5.47;;;2.42;;
80926;SDS011;70385;44.538;18.532;2023-10-09T03:42:42;2.63;;;1.75;;
80926;SDS011;70385;44.538;18.532;2023-10-09T03:45:08;3.28;;;1.80;;
80926;SDS011;70385;44.538;18.532;2023-10-09T03:47:43;4.28;;;2.13;;
80926;SDS011;70385;44.538;18.532;2023-10-09T03:50:09;5.25;;;1.90;;
80926;SDS011;70385;44.538;18.532;2023-10-09T03:52:52;4.53;;;2.05;;
80926;SDS011;70385;44.538;18.532;2023-10-09T03:55:20;3.08;;;1.67;;
80926;SDS011;70385;44.538;18.532;2023-10-09T03:57:47;2.90;;;2.22;;
80926;SDS011;70385;44.538;18.532;2023-10-09T04:00:13;6.78;;;2.20;;
80926;SDS011;70385;44.538;18.532;2023-10-09T04:02:41;4.18;;;2.00;;
80926;SDS011;70385;44.538;18.532;2023-10-09T04:05:07;7.15;;;2.20;;
80926;SDS011;70385;44.538;18.532;2023-10-09T04:07:33;4.95;;;2.28;;
80926;SDS011;70385;44.538;18.532;2023-10-09T04:09:59;3.65;;;2.33;;
80926;SDS011;70385;44.538;18.532;2023-10-09T04:13:00;4.03;;;2.33;;
80926;SDS011;70385;44.538;18.532;2023-10-09T04:15:28;5.07;;;2.38;;
80926;SDS011;70385;44.538;18.532;2023-10-09T04:17:56;3.70;;;2.17;;
80926;SDS011;70385;44.538;18.532;2023-10-09T04:20:22;11.02;;;2.65;;
80926;SDS011;70385;44.538;18.532;2023-10-09T04:22:47;6.20;;;2.47;;
80926;SDS011;70385;44.538;18.532;2023-10-09T04:25:17;4.00;;;2.58;;
80926;SDS011;70385;44.538;18.532;2023-10-09T04:27:54;7.85;;;2.72;;
80926;SDS011;70385;44.538;18.532;2023-10-09T04:30:39;10.80;;;2.55;;
80926;SDS011;70385;44.538;18.532;2023-10-09T04:33:12;9.93;;;3.38;;
80926;SDS011;70385;44.538;18.532;2023-10-09T04:35:55;6.97;;;2.78;;
80926;SDS011;70385;44.538;18.532;2023-10-09T04:38:49;4.35;;;2.88;;
80926;SDS011;70385;44.538;18.532;2023-10-09T04:41:29;4.18;;;2.60;;
80926;SDS011;70385;44.538;18.532;2023-10-09T04:44:17;8.70;;;3.05;;
80926;SDS011;70385;44.538;18.532;2023-10-09T04:46:56;5.75;;;3.30;;
80926;SDS011;70385;44.538;18.532;2023-10-09T04:49:34;5.95;;;3.05;;
80926;SDS011;70385;44.538;18.532;2023-10-09T04:52:21;6.97;;;3.35;;
80926;SDS011;70385;44.538;18.532;2023-10-09T04:54:56;9.93;;;3.03;;
80926;SDS011;70385;44.538;18.532;2023-10-09T04:57:43;8.73;;;3.97;;
80926;SDS011;70385;44.538;18.532;2023-10-09T05:00:10;9.30;;;3.45;;
80926;SDS011;70385;44.538;18.532;2023-10-09T05:02:52;12.77;;;3.40;;
80926;SDS011;70385;44.538;18.532;2023-10-09T05:05:23;13.57;;;3.97;;
80926;SDS011;70385;44.538;18.532;2023-10-09T05:08:16;8.90;;;3.55;;
80926;SDS011;70385;44.538;18.532;2023-10-09T05:10:53;11.45;;;3.67;;
80926;SDS011;70385;44.538;18.532;2023-10-09T05:13:23;6.10;;;3.97;;
80926;SDS011;70385;44.538;18.532;2023-10-09T05:18:58;8.15;;;3.20;;
80926;SDS011;70385;44.538;18.532;2023-10-09T05:21:37;9.52;;;3.88;;
80926;SDS011;70385;44.538;18.532;2023-10-09T05:24:07;11.30;;;3.90;;
80926;SDS011;70385;44.538;18.532;2023-10-09T05:26:39;8.75;;;3.75;;
80926;SDS011;70385;44.538;18.532;2023-10-09T05:29:15;9.10;;;3.40;;
80926;SDS011;70385;44.538;18.532;2023-10-09T05:31:49;7.82;;;3.50;;
80926;SDS011;70385;44.538;18.532;2023-10-09T05:34:27;12.80;;;4.38;;
80926;SDS011;70385;44.538;18.532;2023-10-09T05:37:02;10.27;;;4.18;;
80926;SDS011;70385;44.538;18.532;2023-10-09T05:39:48;11.40;;;4.63;;
80926;SDS011;70385;44.538;18.532;2023-10-09T05:42:44;9.77;;;4.97;;
80926;SDS011;70385;44.538;18.532;2023-10-09T05:45:11;11.18;;;4.43;;
80926;SDS011;70385;44.538;18.532;2023-10-09T05:47:44;8.85;;;4.15;;
80926;SDS011;70385;44.538;18.532;2023-10-09T05:50:31;8.63;;;4.70;;
80926;SDS011;70385;44.538;18.532;2023-10-09T05:53:01;7.32;;;4.45;;
80926;SDS011;70385;44.538;18.532;2023-10-09T05:55:28;14.35;;;5.43;;
80926;SDS011;70385;44.538;18.532;2023-10-09T05:58:13;8.48;;;4.20;;
80926;SDS011;70385;44.538;18.532;2023-10-09T06:00:58;9.35;;;4.18;;
80926;SDS011;70385;44.538;18.532;2023-10-09T06:03:42;7.43;;;4.30;;
80926;SDS011;70385;44.538;18.532;2023-10-09T06:06:17;7.60;;;4.70;;
80926;SDS011;70385;44.538;18.532;2023-10-09T06:09:02;7.53;;;4.20;;
80926;SDS011;70385;44.538;18.532;2023-10-09T06:11:41;9.77;;;4.18;;
80926;SDS011;70385;44.538;18.532;2023-10-09T06:14:17;9.43;;;4.47;;
80926;SDS011;70385;44.538;18.532;2023-10-09T06:17:00;6.55;;;3.78;;
80926;SDS011;70385;44.538;18.532;2023-10-09T06:19:26;8.10;;;4.18;;
80926;SDS011;70385;44.538;18.532;2023-10-09T06:21:56;10.23;;;4.25;;
80926;SDS011;70385;44.538;18.532;2023-10-09T06:24:37;8.38;;;3.88;;
80926;SDS011;70385;44.538;18.532;2023-10-09T06:27:11;8.02;;;4.20;;
80926;SDS011;70385;44.538;18.532;2023-10-09T06:29:38;8.27;;;4.15;;
80926;SDS011;70385;44.538;18.532;2023-10-09T06:32:11;8.32;;;4.70;;
80926;SDS011;70385;44.538;18.532;2023-10-09T06:34:50;10.13;;;4.18;;
80926;SDS011;70385;44.538;18.532;2023-10-09T06:37:20;10.73;;;4.60;;
80926;SDS011;70385;44.538;18.532;2023-10-09T06:39:53;8.63;;;4.07;;
80926;SDS011;70385;44.538;18.532;2023-10-09T06:45:10;9.98;;;3.53;;
80926;SDS011;70385;44.538;18.532;2023-10-09T06:47:42;7.65;;;3.25;;
80926;SDS011;70385;44.538;18.532;2023-10-09T06:50:29;10.90;;;4.00;;
80926;SDS011;70385;44.538;18.532;2023-10-09T06:53:14;7.35;;;3.58;;
80926;SDS011;70385;44.538;18.532;2023-10-09T06:55:39;13.95;;;4.60;;
80926;SDS011;70385;44.538;18.532;2023-10-09T06:58:21;5.65;;;3.30;;
80926;SDS011;70385;44.538;18.532;2023-10-09T07:00:54;4.47;;;3.63;;
80926;SDS011;70385;44.538;18.532;2023-10-09T07:03:27;9.38;;;4.80;;
80926;SDS011;70385;44.538;18.532;2023-10-09T07:06:06;6.95;;;3.75;;
80926;SDS011;70385;44.538;18.532;2023-10-09T07:09:12;9.05;;;4.28;;
80926;SDS011;70385;44.538;18.532;2023-10-09T07:11:39;12.20;;;4.70;;
80926;SDS011;70385;44.538;18.532;2023-10-09T07:14:09;10.20;;;4.60;;
80926;SDS011;70385;44.538;18.532;2023-10-09T07:17:03;13.98;;;4.88;;
80926;SDS011;70385;44.538;18.532;2023-10-09T07:20:02;8.38;;;4.30;;
80926;SDS011;70385;44.538;18.532;2023-10-09T07:23:02;18.38;;;4.97;;
80926;SDS011;70385;44.538;18.532;2023-10-09T07:25:41;13.68;;;4.40;;
80926;SDS011;70385;44.538;18.532;2023-10-09T07:28:21;9.00;;;4.22;;
80926;SDS011;70385;44.538;18.532;2023-10-09T07:30:55;8.93;;;4.40;;
80926;SDS011;70385;44.538;18.532;2023-10-09T07:33:27;12.60;;;4.53;;
80926;SDS011;70385;44.538;18.532;2023-10-09T07:36:20;8.68;;;3.50;;
80926;SDS011;70385;44.538;18.532;2023-10-09T07:39:00;10.57;;;3.53;;
80926;SDS011;70385;44.538;18.532;2023-10-09T07:41:31;7.43;;;3.65;;
80926;SDS011;70385;44.538;18.532;2023-10-09T07:43:57;6.18;;;3.15;;
80926;SDS011;70385;44.538;18.532;2023-10-09T07:46:23;8.70;;;3.67;;
80926;SDS011;70385;44.538;18.532;2023-10-09T07:51:25;4.90;;;3.10;;
80926;SDS011;70385;44.538;18.532;2023-10-09T07:53:58;8.18;;;3.40;;
80926;SDS011;70385;44.538;18.532;2023-10-09T07:56:37;9.05;;;2.90;;
80926;SDS011;70385;44.538;18.532;2023-10-09T07:59:11;5.07;;;2.80;;
80926;SDS011;70385;44.538;18.532;2023-10-09T08:01:39;6.28;;;2.40;;
80926;SDS011;70385;44.538;18.532;2023-10-09T08:04:26;6.40;;;2.92;;
80926;SDS011;70385;44.538;18.532;2023-10-09T08:07:10;5.65;;;2.67;;
80926;SDS011;70385;44.538;18.532;2023-10-09T08:09:51;5.30;;;2.40;;
80926;SDS011;70385;44.538;18.532;2023-10-09T08:12:37;5.97;;;2.30;;
80926;SDS011;70385;44.538;18.532;2023-10-09T08:15:16;8.48;;;2.60;;
80926;SDS011;70385;44.538;18.532;2023-10-09T08:17:48;6.47;;;2.47;;
80926;SDS011;70385;44.538;18.532;2023-10-09T08:20:35;5.57;;;2.78;;
80926;SDS011;70385;44.538;18.532;2023-10-09T08:23:22;8.02;;;3.78;;
80926;SDS011;70385;44.538;18.532;2023-10-09T08:26:06;7.45;;;2.75;;
80926;SDS011;70385;44.538;18.532;2023-10-09T08:28:41;7.80;;;3.47;;
80926;SDS011;70385;44.538;18.532;2023-10-09T08:31:17;4.82;;;2.35;;
80926;SDS011;70385;44.538;18.532;2023-10-09T08:34:11;7.97;;;3.20;;
80926;SDS011;70385;44.538;18.532;2023-10-09T08:36:51;5.43;;;3.05;;
80926;SDS011;70385;44.538;18.532;2023-10-09T08:39:21;6.63;;;3.53;;
80926;SDS011;70385;44.538;18.532;2023-10-09T08:41:55;6.28;;;3.10;;
80926;SDS011;70385;44.538;18.532;2023-10-09T08:44:24;5.85;;;3.53;;
80926;SDS011;70385;44.538;18.532;2023-10-09T08:46:57;9.85;;;3.13;;
80926;SDS011;70385;44.538;18.532;2023-10-09T08:49:25;9.15;;;3.05;;
80926;SDS011;70385;44.538;18.532;2023-10-09T08:51:51;7.55;;;3.50;;
80926;SDS011;70385;44.538;18.532;2023-10-09T08:54:20;5.22;;;3.05;;
80926;SDS011;70385;44.538;18.532;2023-10-09T08:56:47;8.70;;;4.13;;
80926;SDS011;70385;44.538;18.532;2023-10-09T08:59:16;13.02;;;3.78;;
80926;SDS011;70385;44.538;18.532;2023-10-09T09:01:46;10.43;;;4.68;;
80926;SDS011;70385;44.538;18.532;2023-10-09T09:04:39;8.30;;;3.03;;
80926;SDS011;70385;44.538;18.532;2023-10-09T09:07:06;10.95;;;3.85;;
80926;SDS011;70385;44.538;18.532;2023-10-09T09:09:58;8.90;;;3.50;;
80926;SDS011;70385;44.538;18.532;2023-10-09T09:12:43;10.00;;;3.55;;
80926;SDS011;70385;44.538;18.532;2023-10-09T09:15:16;10.98;;;3.80;;
80926;SDS011;70385;44.538;18.532;2023-10-09T09:17:52;10.02;;;3.80;;
80926;SDS011;70385;44.538;18.532;2023-10-09T09:20:31;8.15;;;3.42;;
80926;SDS011;70385;44.538;18.532;2023-10-09T09:23:10;8.82;;;4.00;;
80926;SDS011;70385;44.538;18.532;2023-10-09T09:25:44;16.83;;;4.40;;
80926;SDS011;70385;44.538;18.532;2023-10-09T09:28:13;10.25;;;4.78;;
80926;SDS011;70385;44.538;18.532;2023-10-09T09:30:46;10.60;;;4.63;;
80926;SDS011;70385;44.538;18.532;2023-10-09T09:33:20;11.68;;;5.03;;
80926;SDS011;70385;44.538;18.532;2023-10-09T09:36:08;12.48;;;4.70;;
80926;SDS011;70385;44.538;18.532;2023-10-09T09:38:37;12.15;;;4.03;;
80926;SDS011;70385;44.538;18.532;2023-10-09T09:41:26;10.02;;;3.40;;
80926;SDS011;70385;44.538;18.532;2023-10-09T09:43:53;7.95;;;3.10;;
80926;SDS011;70385;44.538;18.532;2023-10-09T09:46:23;11.20;;;3.33;;
80926;SDS011;70385;44.538;18.532;2023-10-09T09:49:02;11.05;;;3.88;;
80926;SDS011;70385;44.538;18.532;2023-10-09T09:51:31;8.10;;;3.85;;
80926;SDS011;70385;44.538;18.532;2023-10-09T09:53:57;13.88;;;4.63;;
80926;SDS011;70385;44.538;18.532;2023-10-09T09:56:26;11.93;;;3.95;;
80926;SDS011;70385;44.538;18.532;2023-10-09T09:58:57;16.10;;;5.75;;
80926;SDS011;70385;44.538;18.532;2023-10-09T10:01:28;26.73;;;9.20;;
80926;SDS011;70385;44.538;18.532;2023-10-09T10:04:30;43.03;;;16.30;;
80926;SDS011;70385;44.538;18.532;2023-10-09T10:07:00;31.40;;;13.15;;
80926;SDS011;70385;44.538;18.532;2023-10-09T10:09:37;29.65;;;9.90;;
80926;SDS011;70385;44.538;18.532;2023-10-09T10:12:05;34.08;;;12.52;;
80926;SDS011;70385;44.538;18.532;2023-10-09T10:14:54;34.75;;;14.50;;
80926;SDS011;70385;44.538;18.532;2023-10-09T10:20:24;23.20;;;8.10;;
80926;SDS011;70385;44.538;18.532;2023-10-09T10:25:42;38.72;;;11.57;;
80926;SDS011;70385;44.538;18.532;2023-10-09T10:31:05;35.03;;;11.15;;
80926;SDS011;70385;44.538;18.532;2023-10-09T10:36:24;22.13;;;10.15;;
80926;SDS011;70385;44.538;18.532;2023-10-09T10:39:07;29.52;;;10.68;;
80926;SDS011;70385;44.538;18.532;2023-10-09T10:41:54;30.95;;;9.70;;
80926;SDS011;70385;44.538;18.532;2023-10-09T10:44:25;37.40;;;10.27;;
80926;SDS011;70385;44.538;18.532;2023-10-09T10:47:07;23.88;;;9.02;;
80926;SDS011;70385;44.538;18.532;2023-10-09T10:50:01;25.48;;;8.80;;
80926;SDS011;70385;44.538;18.532;2023-10-09T10:53:12;32.45;;;9.07;;
80926;SDS011;70385;44.538;18.532;2023-10-09T10:58:40;39.72;;;9.02;;
80926;SDS011;70385;44.538;18.532;2023-10-09T11:01:37;45.20;;;11.38;;
80926;SDS011;70385;44.538;18.532;2023-10-09T11:04:22;46.55;;;9.82;;
80926;SDS011;70385;44.538;18.532;2023-10-09T11:06:56;40.65;;;10.30;;
80926;SDS011;70385;44.538;18.532;2023-10-09T11:12:44;50.50;;;9.48;;
80926;SDS011;70385;44.538;18.532;2023-10-09T11:15:36;66.25;;;10.20;;
80926;SDS011;70385;44.538;18.532;2023-10-09T11:18:09;43.08;;;9.45;;
80926;SDS011;70385;44.538;18.532;2023-10-09T11:20:49;54.78;;;10.23;;
80926;SDS011;70385;44.538;18.532;2023-10-09T11:23:42;39.15;;;8.70;;
80926;SDS011;70385;44.538;18.532;2023-10-09T11:26:18;30.75;;;8.98;;
80926;SDS011;70385;44.538;18.532;2023-10-09T11:29:07;26.48;;;9.07;;
80926;SDS011;70385;44.538;18.532;2023-10-09T11:32:00;36.22;;;8.18;;
80926;SDS011;70385;44.538;18.532;2023-10-09T11:34:32;39.33;;;9.35;;
80926;SDS011;70385;44.538;18.532;2023-10-09T11:37:02;41.20;;;9.13;;
80926;SDS011;70385;44.538;18.532;2023-10-09T11:39:39;32.65;;;7.63;;
80926;SDS011;70385;44.538;18.532;2023-10-09T11:42:18;24.77;;;6.95;;
80926;SDS011;70385;44.538;18.532;2023-10-09T11:45:19;21.33;;;5.68;;
80926;SDS011;70385;44.538;18.532;2023-10-09T11:47:51;18.48;;;5.20;;
80926;SDS011;70385;44.538;18.532;2023-10-09T11:50:39;21.27;;;4.63;;
80926;SDS011;70385;44.538;18.532;2023-10-09T11:53:11;13.60;;;4.93;;
80926;SDS011;70385;44.538;18.532;2023-10-09T11:55:59;15.82;;;4.75;;
80926;SDS011;70385;44.538;18.532;2023-10-09T11:58:24;15.32;;;4.20;;
80926;SDS011;70385;44.538;18.532;2023-10-09T12:03:30;12.98;;;3.63;;
80926;SDS011;70385;44.538;18.532;2023-10-09T12:06:03;15.95;;;5.57;;
80926;SDS011;70385;44.538;18.532;2023-10-09T12:08:37;19.60;;;4.53;;
80926;SDS011;70385;44.538;18.532;2023-10-09T12:11:07;13.10;;;4.00;;
80926;SDS011;70385;44.538;18.532;2023-10-09T12:13:37;10.05;;;3.30;;
80926;SDS011;70385;44.538;18.532;2023-10-09T12:16:04;11.23;;;3.65;;
80926;SDS011;70385;44.538;18.532;2023-10-09T12:18:40;11.85;;;4.22;;
80926;SDS011;70385;44.538;18.532;2023-10-09T12:21:08;10.77;;;4.40;;
80926;SDS011;70385;44.538;18.532;2023-10-09T12:23:41;13.32;;;3.70;;
80926;SDS011;70385;44.538;18.532;2023-10-09T12:26:09;11.73;;;3.50;;
80926;SDS011;70385;44.538;18.532;2023-10-09T12:28:40;10.73;;;3.80;;
80926;SDS011;70385;44.538;18.532;2023-10-09T12:31:14;13.88;;;4.68;;
80926;SDS011;70385;44.538;18.532;2023-10-09T12:33:45;12.48;;;3.85;;
80926;SDS011;70385;44.538;18.532;2023-10-09T12:36:12;12.82;;;4.65;;
80926;SDS011;70385;44.538;18.532;2023-10-09T12:38:45;17.02;;;4.90;;
80926;SDS011;70385;44.538;18.532;2023-10-09T12:41:16;14.35;;;4.82;;
80926;SDS011;70385;44.538;18.532;2023-10-09T12:43:52;12.77;;;5.20;;
80926;SDS011;70385;44.538;18.532;2023-10-09T12:46:20;12.27;;;4.97;;
80926;SDS011;70385;44.538;18.532;2023-10-09T12:48:52;10.18;;;4.60;;
80926;SDS011;70385;44.538;18.532;2023-10-09T12:51:19;14.57;;;4.80;;
80926;SDS011;70385;44.538;18.532;2023-10-09T12:53:46;13.05;;;5.05;;
80926;SDS011;70385;44.538;18.532;2023-10-09T12:56:20;10.95;;;3.90;;
80926;SDS011;70385;44.538;18.532;2023-10-09T12:58:47;10.98;;;4.47;;
80926;SDS011;70385;44.538;18.532;2023-10-09T13:01:21;13.65;;;3.67;;
80926;SDS011;70385;44.538;18.532;2023-10-09T13:03:46;13.50;;;4.50;;
80926;SDS011;70385;44.538;18.532;2023-10-09T13:06:15;13.15;;;3.60;;
80926;SDS011;70385;44.538;18.532;2023-10-09T13:08:49;13.05;;;4.00;;
80926;SDS011;70385;44.538;18.532;2023-10-09T13:11:15;9.32;;;4.10;;
80926;SDS011;70385;44.538;18.532;2023-10-09T13:13:44;15.35;;;4.28;;
80926;SDS011;70385;44.538;18.532;2023-10-09T13:16:17;8.23;;;3.42;;
80926;SDS011;70385;44.538;18.532;2023-10-09T13:18:55;10.68;;;3.80;;
80926;SDS011;70385;44.538;18.532;2023-10-09T13:21:24;14.30;;;4.00;;
80926;SDS011;70385;44.538;18.532;2023-10-09T13:23:51;10.35;;;3.65;;
80926;SDS011;70385;44.538;18.532;2023-10-09T13:26:20;10.95;;;4.32;;
80926;SDS011;70385;44.538;18.532;2023-10-09T13:28:58;9.32;;;3.75;;
80926;SDS011;70385;44.538;18.532;2023-10-09T13:31:25;11.10;;;3.83;;
80926;SDS011;70385;44.538;18.532;2023-10-09T13:33:52;13.10;;;4.38;;
80926;SDS011;70385;44.538;18.532;2023-10-09T13:36:25;10.95;;;4.28;;
80926;SDS011;70385;44.538;18.532;2023-10-09T13:39:01;16.73;;;4.63;;
80926;SDS011;70385;44.538;18.532;2023-10-09T13:41:47;15.93;;;4.45;;
80926;SDS011;70385;44.538;18.532;2023-10-09T13:44:28;11.10;;;3.80;;
80926;SDS011;70385;44.538;18.532;2023-10-09T13:46:55;12.73;;;4.10;;
80926;SDS011;70385;44.538;18.532;2023-10-09T13:49:24;18.73;;;5.28;;
80926;SDS011;70385;44.538;18.532;2023-10-09T13:51:56;11.77;;;5.25;;
80926;SDS011;70385;44.538;18.532;2023-10-09T13:54:29;10.10;;;5.38;;
80926;SDS011;70385;44.538;18.532;2023-10-09T13:56:59;15.32;;;5.45;;
80926;SDS011;70385;44.538;18.532;2023-10-09T13:59:25;16.15;;;5.88;;
80926;SDS011;70385;44.538;18.532;2023-10-09T14:01:52;14.93;;;5.57;;
80926;SDS011;70385;44.538;18.532;2023-10-09T14:04:21;17.55;;;7.55;;
80926;SDS011;70385;44.538;18.532;2023-10-09T14:06:49;17.85;;;5.43;;
80926;SDS011;70385;44.538;18.532;2023-10-09T14:09:26;17.20;;;5.78;;
80926;SDS011;70385;44.538;18.532;2023-10-09T14:12:15;31.20;;;6.35;;
80926;SDS011;70385;44.538;18.532;2023-10-09T14:14:44;22.10;;;6.13;;
80926;SDS011;70385;44.538;18.532;2023-10-09T14:17:15;31.60;;;6.63;;
80926;SDS011;70385;44.538;18.532;2023-10-09T14:19:50;25.05;;;6.22;;
80926;SDS011;70385;44.538;18.532;2023-10-09T14:22:17;20.08;;;6.07;;
80926;SDS011;70385;44.538;18.532;2023-10-09T14:24:44;30.80;;;6.03;;
80926;SDS011;70385;44.538;18.532;2023-10-09T14:27:13;19.90;;;6.20;;
80926;SDS011;70385;44.538;18.532;2023-10-09T14:29:46;31.30;;;5.95;;
80926;SDS011;70385;44.538;18.532;2023-10-09T14:32:15;20.63;;;5.50;;
80926;SDS011;70385;44.538;18.532;2023-10-09T14:34:42;25.40;;;5.40;;
80926;SDS011;70385;44.538;18.532;2023-10-09T14:37:15;18.42;;;5.10;;
80926;SDS011;70385;44.538;18.532;2023-10-09T14:39:45;15.70;;;5.60;;
80926;SDS011;70385;44.538;18.532;2023-10-09T14:42:17;18.85;;;5.35;;
80926;SDS011;70385;44.538;18.532;2023-10-09T14:44:45;15.65;;;5.75;;
80926;SDS011;70385;44.538;18.532;2023-10-09T14:47:12;17.95;;;5.95;;
80926;SDS011;70385;44.538;18.532;2023-10-09T14:49:39;26.95;;;6.22;;
80926;SDS011;70385;44.538;18.532;2023-10-09T14:52:15;25.92;;;5.85;;
80926;SDS011;70385;44.538;18.532;2023-10-09T14:54:45;21.67;;;5.65;;
80926;SDS011;70385;44.538;18.532;2023-10-09T14:57:12;18.42;;;6.72;;
80926;SDS011;70385;44.538;18.532;2023-10-09T14:59:39;38.55;;;6.90;;
80926;SDS011;70385;44.538;18.532;2023-10-09T15:02:06;16.17;;;6.05;;
80926;SDS011;70385;44.538;18.532;2023-10-09T15:04:37;19.95;;;5.50;;
80926;SDS011;70385;44.538;18.532;2023-10-09T15:07:07;24.00;;;6.13;;
80926;SDS011;70385;44.538;18.532;2023-10-09T15:09:33;20.17;;;5.82;;
80926;SDS011;70385;44.538;18.532;2023-10-09T15:12:05;20.83;;;6.28;;
80926;SDS011;70385;44.538;18.532;2023-10-09T15:14:41;20.90;;;6.95;;
80926;SDS011;70385;44.538;18.532;2023-10-09T15:17:10;18.75;;;7.00;;
80926;SDS011;70385;44.538;18.532;2023-10-09T15:22:14;20.05;;;6.95;;
80926;SDS011;70385;44.538;18.532;2023-10-09T15:24:53;28.02;;;9.07;;
80926;SDS011;70385;44.538;18.532;2023-10-09T15:27:21;29.40;;;8.55;;
80926;SDS011;70385;44.538;18.532;2023-10-09T15:29:49;27.67;;;10.20;;
80926;SDS011;70385;44.538;18.532;2023-10-09T15:32:30;30.70;;;11.75;;
80926;SDS011;70385;44.538;18.532;2023-10-09T15:35:03;33.80;;;11.93;;
80926;SDS011;70385;44.538;18.532;2023-10-09T15:37:32;48.53;;;15.73;;
80926;SDS011;70385;44.538;18.532;2023-10-09T15:40:04;45.70;;;13.57;;
80926;SDS011;70385;44.538;18.532;2023-10-09T15:42:31;38.53;;;11.85;;
80926;SDS011;70385;44.538;18.532;2023-10-09T15:47:49;26.60;;;13.15;;